sensor_id;sensor_type;location;lat;lon;timestamp;pressure;altitude;pressure_sealevel;temperature;humidity
29385;BME280;16367;48.736;9.218;2023-04-09T00:01:00;-23377.66;;;6.61;100.00
29385;BME280;16367;48.736;9.218;2023-04-09T00:03:03;-23379.88;;;6.68;100.00
29385;BME280;16367;48.736;9.218;2023-04-09T00:05:06;-23378.31;;;6.63;100.00
29385;BME280;16367;48.736;9.218;2023-04-09T00:07:09;-23379.88;;;6.68;100.00
29385;BME280;16367;48.736;9.218;2023-04-09T00:09:12;-23379.56;;;6.67;100.00
29385;BME280;16367;48.736;9.218;2023-04-09T00:11:15;-23379.56;;;6.67;100.00
29385;BME280;16367;48.736;9.218;2023-04-09T00:13:19;-23378.31;;;6.63;100.00
29385;BME280;16367;48.736;9.218;2023-04-09T00:15:39;-23382.13;;;6.75;100.00
29385;BME280;16367;48.736;9.218;2023-04-09T00:17:42;-23380.22;;;6.69;100.00
29385;BME280;16367;48.736;9.218;2023-04-09T00:19:44;-23380.22;;;6.69;100.00
29385;BME280;16367;48.736;9.218;2023-04-09T00:21:47;-23377.97;;;6.62;100.00
29385;BME280;16367;48.736;9.218;2023-04-09T00:23:50;-23378.94;;;6.65;100.00
29385;BME280;16367;48.736;9.218;2023-04-09T00:25:52;-23380.84;;;6.71;100.00
29385;BME280;16367;48.736;9.218;2023-04-09T00:27:55;-23378.94;;;6.65;100.00
29385;BME280;16367;48.736;9.218;2023-04-09T00:29:59;-23378.94;;;6.65;100.00
29385;BME280;16367;48.736;9.218;2023-04-09T00:32:02;-23377.19;;;6.60;100.00
29385;BME280;16367;48.736;9.218;2023-04-09T00:34:05;-23378.31;;;6.63;100.00
29385;BME280;16367;48.736;9.218;2023-04-09T00:36:08;-23379.25;;;6.66;100.00
29385;BME280;16367;48.736;9.218;2023-04-09T00:38:10;-23380.22;;;6.69;100.00
29385;BME280;16367;48.736;9.218;2023-04-09T00:40:13;-23378.63;;;6.64;100.00
29385;BME280;16367;48.736;9.218;2023-04-09T00:42:16;-23375.75;;;6.55;100.00
29385;BME280;16367;48.736;9.218;2023-04-09T00:44:19;-23376.41;;;6.57;100.00
29385;BME280;16367;48.736;9.218;2023-04-09T00:46:23;-23375.13;;;6.53;100.00
29385;BME280;16367;48.736;9.218;2023-04-09T00:48:26;-23375.44;;;6.54;100.00
29385;BME280;16367;48.736;9.218;2023-04-09T00:50:29;-23382.59;;;6.77;100.00
29385;BME280;16367;48.736;9.218;2023-04-09T00:52:32;-23377.34;;;6.60;100.00
29385;BME280;16367;48.736;9.218;2023-04-09T00:54:35;-23377.97;;;6.62;100.00
29385;BME280;16367;48.736;9.218;2023-04-09T00:56:38;-23376.72;;;6.58;100.00
29385;BME280;16367;48.736;9.218;2023-04-09T00:58:41;-23379.25;;;6.66;100.00
29385;BME280;16367;48.736;9.218;2023-04-09T01:00:44;-23379.09;;;6.66;100.00
29385;BME280;16367;48.736;9.218;2023-04-09T01:02:48;-23379.56;;;6.67;100.00
29385;BME280;16367;48.736;9.218;2023-04-09T01:04:53;-23377.97;;;6.62;100.00
29385;BME280;16367;48.736;9.218;2023-04-09T01:07:00;-23377.66;;;6.61;100.00
29385;BME280;16367;48.736;9.218;2023-04-09T01:09:09;-23377.34;;;6.60;100.00
29385;BME280;16367;48.736;9.218;2023-04-09T01:11:25;-23376.41;;;6.57;100.00
29385;BME280;16367;48.736;9.218;2023-04-09T01:13:38;-23376.41;;;6.57;100.00
29385;BME280;16367;48.736;9.218;2023-04-09T01:15:47;-23375.44;;;6.54;100.00
29385;BME280;16367;48.736;9.218;2023-04-09T01:18:00;-23377.66;;;6.61;100.00
29385;BME280;16367;48.736;9.218;2023-04-09T01:20:09;-23375.59;;;6.55;100.00
29385;BME280;16367;48.736;9.218;2023-04-09T01:22:19;-23376.06;;;6.56;100.00
29385;BME280;16367;48.736;9.218;2023-04-09T01:24:37;-23379.56;;;6.67;100.00
29385;BME280;16367;48.736;9.218;2023-04-09T01:26:53;-23380.06;;;6.69;100.00
29385;BME280;16367;48.736;9.218;2023-04-09T01:29:02;-23376.88;;;6.59;100.00
29385;BME280;16367;48.736;9.218;2023-04-09T01:31:10;-23372.09;;;6.44;100.00
29385;BME280;16367;48.736;9.218;2023-04-09T01:33:16;-23373.22;;;6.47;100.00
29385;BME280;16367;48.736;9.218;2023-04-09T01:35:19;-23377.50;;;6.61;100.00
29385;BME280;16367;48.736;9.218;2023-04-09T01:37:23;-23376.88;;;6.59;100.00
29385;BME280;16367;48.736;9.218;2023-04-09T01:39:27;-23371.63;;;6.42;100.00
29385;BME280;16367;48.736;9.218;2023-04-09T01:41:31;-23374.00;;;6.50;100.00
29385;BME280;16367;48.736;9.218;2023-04-09T01:43:36;-23372.91;;;6.46;100.00
29385;BME280;16367;48.736;9.218;2023-04-09T01:45:41;-23375.13;;;6.53;100.00
29385;BME280;16367;48.736;9.218;2023-04-09T01:47:46;-23374.50;;;6.51;100.00
29385;BME280;16367;48.736;9.218;2023-04-09T01:49:49;-23374.16;;;6.50;100.00
29385;BME280;16367;48.736;9.218;2023-04-09T01:51:53;-23374.50;;;6.51;100.00
29385;BME280;16367;48.736;9.218;2023-04-09T01:53:56;-23375.13;;;6.53;100.00
29385;BME280;16367;48.736;9.218;2023-04-09T01:55:59;-23376.56;;;6.58;100.00
29385;BME280;16367;48.736;9.218;2023-04-09T01:58:02;-23373.38;;;6.48;100.00
29385;BME280;16367;48.736;9.218;2023-04-09T02:00:06;-23374.50;;;6.51;100.00
29385;BME280;16367;48.736;9.218;2023-04-09T02:02:16;-23375.59;;;6.55;100.00
29385;BME280;16367;48.736;9.218;2023-04-09T02:04:22;-23373.69;;;6.49;100.00
29385;BME280;16367;48.736;9.218;2023-04-09T02:06:31;-23376.22;;;6.57;100.00
29385;BME280;16367;48.736;9.218;2023-04-09T02:08:36;-23379.88;;;6.68;100.00
29385;BME280;16367;48.736;9.218;2023-04-09T02:10:39;-23372.56;;;6.45;100.00
29385;BME280;16367;48.736;9.218;2023-04-09T02:12:47;-23373.06;;;6.47;100.00
29385;BME280;16367;48.736;9.218;2023-04-09T02:14:51;-23370.81;;;6.40;100.00
29385;BME280;16367;48.736;9.218;2023-04-09T02:16:55;-23375.44;;;6.54;100.00
29385;BME280;16367;48.736;9.218;2023-04-09T02:18:59;-23377.50;;;6.61;100.00
29385;BME280;16367;48.736;9.218;2023-04-09T02:21:02;-23377.34;;;6.60;100.00
29385;BME280;16367;48.736;9.218;2023-04-09T02:23:06;-23374.63;;;6.52;100.00
29385;BME280;16367;48.736;9.218;2023-04-09T02:25:08;-23375.44;;;6.54;100.00
29385;BME280;16367;48.736;9.218;2023-04-09T02:27:11;-23376.88;;;6.59;100.00
29385;BME280;16367;48.736;9.218;2023-04-09T02:29:14;-23371.78;;;6.43;100.00
29385;BME280;16367;48.736;9.218;2023-04-09T02:31:17;-23374.63;;;6.52;100.00
29385;BME280;16367;48.736;9.218;2023-04-09T02:33:19;-23371.94;;;6.43;100.00
29385;BME280;16367;48.736;9.218;2023-04-09T02:35:24;-23367.81;;;6.30;100.00
29385;BME280;16367;48.736;9.218;2023-04-09T02:37:27;-23368.75;;;6.33;100.00
29385;BME280;16367;48.736;9.218;2023-04-09T02:39:29;-23372.25;;;6.44;100.00
29385;BME280;16367;48.736;9.218;2023-04-09T02:41:32;-23369.56;;;6.36;100.00
29385;BME280;16367;48.736;9.218;2023-04-09T02:43:35;-23372.91;;;6.46;100.00
29385;BME280;16367;48.736;9.218;2023-04-09T02:45:38;-23373.84;;;6.49;100.00
29385;BME280;16367;48.736;9.218;2023-04-09T02:47:41;-23372.41;;;6.45;100.00
29385;BME280;16367;48.736;9.218;2023-04-09T02:49:43;-23371.00;;;6.40;100.00
29385;BME280;16367;48.736;9.218;2023-04-09T02:51:48;-23374.81;;;6.52;100.00
29385;BME280;16367;48.736;9.218;2023-04-09T02:53:50;-23370.66;;;6.39;100.00
29385;BME280;16367;48.736;9.218;2023-04-09T02:55:53;-23370.03;;;6.37;100.00
29385;BME280;16367;48.736;9.218;2023-04-09T02:57:56;-23370.66;;;6.39;100.00
29385;BME280;16367;48.736;9.218;2023-04-09T02:59:58;-23366.38;;;6.26;100.00
29385;BME280;16367;48.736;9.218;2023-04-09T03:02:01;-23369.41;;;6.35;100.00
29385;BME280;16367;48.736;9.218;2023-04-09T03:04:04;-23370.66;;;6.39;100.00
29385;BME280;16367;48.736;9.218;2023-04-09T03:06:07;-23368.13;;;6.31;100.00
29385;BME280;16367;48.736;9.218;2023-04-09T03:08:11;-23369.41;;;6.35;100.00
29385;BME280;16367;48.736;9.218;2023-04-09T03:10:14;-23368.28;;;6.32;100.00
29385;BME280;16367;48.736;9.218;2023-04-09T03:12:17;-23372.91;;;6.46;100.00
29385;BME280;16367;48.736;9.218;2023-04-09T03:14:19;-23369.06;;;6.34;100.00
29385;BME280;16367;48.736;9.218;2023-04-09T03:16:23;-23367.97;;;6.31;100.00
29385;BME280;16367;48.736;9.218;2023-04-09T03:18:26;-23367.50;;;6.29;100.00
29385;BME280;16367;48.736;9.218;2023-04-09T03:20:29;-23365.25;;;6.22;100.00
29385;BME280;16367;48.736;9.218;2023-04-09T03:22:34;-23367.16;;;6.28;100.00
29385;BME280;16367;48.736;9.218;2023-04-09T03:24:38;-23365.25;;;6.22;100.00
29385;BME280;16367;48.736;9.218;2023-04-09T03:26:41;-23367.00;;;6.28;100.00
29385;BME280;16367;48.736;9.218;2023-04-09T03:28:44;-23366.06;;;6.25;100.00
29385;BME280;16367;48.736;9.218;2023-04-09T03:30:47;-23366.84;;;6.27;100.00
29385;BME280;16367;48.736;9.218;2023-04-09T03:32:50;-23366.22;;;6.25;100.00
29385;BME280;16367;48.736;9.218;2023-04-09T03:34:52;-23363.34;;;6.16;100.00
29385;BME280;16367;48.736;9.218;2023-04-09T03:36:56;-23364.78;;;6.21;100.00
29385;BME280;16367;48.736;9.218;2023-04-09T03:38:59;-23365.25;;;6.22;100.00
29385;BME280;16367;48.736;9.218;2023-04-09T03:41:03;-23366.84;;;6.27;100.00
29385;BME280;16367;48.736;9.218;2023-04-09T03:43:06;-23364.47;;;6.20;100.00
29385;BME280;16367;48.736;9.218;2023-04-09T03:45:09;-23367.50;;;6.29;100.00
29385;BME280;16367;48.736;9.218;2023-04-09T03:47:12;-23364.63;;;6.20;100.00
29385;BME280;16367;48.736;9.218;2023-04-09T03:49:15;-23363.03;;;6.15;100.00
29385;BME280;16367;48.736;9.218;2023-04-09T03:51:17;-23364.00;;;6.18;100.00
29385;BME280;16367;48.736;9.218;2023-04-09T03:53:20;-23363.34;;;6.16;100.00
29385;BME280;16367;48.736;9.218;2023-04-09T03:55:23;-23362.41;;;6.13;100.00
29385;BME280;16367;48.736;9.218;2023-04-09T03:57:27;-23362.25;;;6.13;100.00
29385;BME280;16367;48.736;9.218;2023-04-09T03:59:29;-23362.06;;;6.12;100.00
29385;BME280;16367;48.736;9.218;2023-04-09T04:01:32;-23361.44;;;6.10;100.00
29385;BME280;16367;48.736;9.218;2023-04-09T04:03:35;-23361.94;;;6.12;100.00
29385;BME280;16367;48.736;9.218;2023-04-09T04:05:38;-23357.31;;;5.97;100.00
29385;BME280;16367;48.736;9.218;2023-04-09T04:07:41;-23357.47;;;5.97;100.00
29385;BME280;16367;48.736;9.218;2023-04-09T04:09:45;-23355.41;;;5.91;100.00
29385;BME280;16367;48.736;9.218;2023-04-09T04:11:48;-23356.34;;;5.94;100.00
29385;BME280;16367;48.736;9.218;2023-04-09T04:13:52;-23356.50;;;5.94;100.00
29385;BME280;16367;48.736;9.218;2023-04-09T04:15:56;-23361.44;;;6.10;100.00
29385;BME280;16367;48.736;9.218;2023-04-09T04:17:59;-23364.00;;;6.18;100.00
29385;BME280;16367;48.736;9.218;2023-04-09T04:20:01;-23357.47;;;5.97;100.00
29385;BME280;16367;48.736;9.218;2023-04-09T04:22:04;-23354.75;;;5.89;100.00
29385;BME280;16367;48.736;9.218;2023-04-09T04:24:07;-23357.63;;;5.98;100.00
29385;BME280;16367;48.736;9.218;2023-04-09T04:26:10;-23356.84;;;5.95;100.00
29385;BME280;16367;48.736;9.218;2023-04-09T04:28:12;-23360.50;;;6.07;100.00
29385;BME280;16367;48.736;9.218;2023-04-09T04:30:17;-23357.94;;;5.99;100.00
29385;BME280;16367;48.736;9.218;2023-04-09T04:32:20;-23360.16;;;6.06;100.00
29385;BME280;16367;48.736;9.218;2023-04-09T04:34:23;-23356.03;;;5.93;100.00
29385;BME280;16367;48.736;9.218;2023-04-09T04:36:25;-23355.72;;;5.92;100.00
29385;BME280;16367;48.736;9.218;2023-04-09T04:38:28;-23356.50;;;5.94;100.00
29385;BME280;16367;48.736;9.218;2023-04-09T04:40:31;-23353.97;;;5.86;100.00
29385;BME280;16367;48.736;9.218;2023-04-09T04:42:33;-23355.41;;;5.91;100.00
29385;BME280;16367;48.736;9.218;2023-04-09T04:44:36;-23359.22;;;6.03;100.00
29385;BME280;16367;48.736;9.218;2023-04-09T04:46:40;-23360.34;;;6.07;100.00
29385;BME280;16367;48.736;9.218;2023-04-09T04:48:43;-23357.00;;;5.96;100.00
29385;BME280;16367;48.736;9.218;2023-04-09T04:50:46;-23358.25;;;6.00;100.00
29385;BME280;16367;48.736;9.218;2023-04-09T04:52:48;-23360.34;;;6.07;100.00
29385;BME280;16367;48.736;9.218;2023-04-09T04:54:51;-23359.06;;;6.03;100.00
29385;BME280;16367;48.736;9.218;2023-04-09T04:56:54;-23360.50;;;6.07;100.00
29385;BME280;16367;48.736;9.218;2023-04-09T04:58:57;-23364.00;;;6.18;100.00
29385;BME280;16367;48.736;9.218;2023-04-09T05:01:00;-23361.59;;;6.11;100.00
29385;BME280;16367;48.736;9.218;2023-04-09T05:03:04;-23363.19;;;6.16;100.00
29385;BME280;16367;48.736;9.218;2023-04-09T05:05:07;-23363.50;;;6.17;100.00
29385;BME280;16367;48.736;9.218;2023-04-09T05:07:10;-23363.34;;;6.16;100.00
29385;BME280;16367;48.736;9.218;2023-04-09T05:09:13;-23361.75;;;6.11;100.00
29385;BME280;16367;48.736;9.218;2023-04-09T05:11:16;-23367.50;;;6.29;100.00
29385;BME280;16367;48.736;9.218;2023-04-09T05:13:18;-23365.09;;;6.22;100.00
29385;BME280;16367;48.736;9.218;2023-04-09T05:15:21;-23364.94;;;6.21;100.00
29385;BME280;16367;48.736;9.218;2023-04-09T05:17:24;-23361.75;;;6.11;100.00
29385;BME280;16367;48.736;9.218;2023-04-09T05:19:28;-23361.59;;;6.11;100.00
29385;BME280;16367;48.736;9.218;2023-04-09T05:21:30;-23361.44;;;6.10;100.00
29385;BME280;16367;48.736;9.218;2023-04-09T05:23:33;-23360.81;;;6.08;100.00
29385;BME280;16367;48.736;9.218;2023-04-09T05:25:36;-23360.50;;;6.07;100.00
29385;BME280;16367;48.736;9.218;2023-04-09T05:27:39;-23361.28;;;6.10;100.00
29385;BME280;16367;48.736;9.218;2023-04-09T05:29:41;-23361.59;;;6.11;100.00
29385;BME280;16367;48.736;9.218;2023-04-09T05:31:44;-23363.19;;;6.16;100.00
29385;BME280;16367;48.736;9.218;2023-04-09T05:33:47;-23364.63;;;6.20;100.00
29385;BME280;16367;48.736;9.218;2023-04-09T05:35:51;-23368.13;;;6.31;100.00
29385;BME280;16367;48.736;9.218;2023-04-09T05:37:54;-23371.31;;;6.41;100.00
29385;BME280;16367;48.736;9.218;2023-04-09T05:39:57;-23370.03;;;6.37;100.00
29385;BME280;16367;48.736;9.218;2023-04-09T05:42:00;-23373.53;;;6.48;100.00
29385;BME280;16367;48.736;9.218;2023-04-09T05:44:02;-23376.22;;;6.57;100.00
29385;BME280;16367;48.736;9.218;2023-04-09T05:46:06;-23377.19;;;6.60;100.00
29385;BME280;16367;48.736;9.218;2023-04-09T05:48:08;-23378.31;;;6.63;100.00
29385;BME280;16367;48.736;9.218;2023-04-09T05:50:11;-23380.69;;;6.71;100.00
29385;BME280;16367;48.736;9.218;2023-04-09T05:52:15;-23386.41;;;6.89;100.00
29385;BME280;16367;48.736;9.218;2023-04-09T05:54:18;-23374.63;;;6.52;100.00
29385;BME280;16367;48.736;9.218;2023-04-09T05:56:21;-23376.72;;;6.58;100.00
29385;BME280;16367;48.736;9.218;2023-04-09T05:58:24;-23384.34;;;6.83;100.00
29385;BME280;16367;48.736;9.218;2023-04-09T06:00:27;-23389.09;;;6.98;100.00
29385;BME280;16367;48.736;9.218;2023-04-09T06:02:30;-23394.34;;;7.14;100.00
29385;BME280;16367;48.736;9.218;2023-04-09T06:04:33;-23392.44;;;7.08;100.00
29385;BME280;16367;48.736;9.218;2023-04-09T06:06:37;-23401.50;;;7.37;100.00
29385;BME280;16367;48.736;9.218;2023-04-09T06:08:41;-23402.13;;;7.39;100.00
29385;BME280;16367;48.736;9.218;2023-04-09T06:10:45;-23391.00;;;7.04;100.00
29385;BME280;16367;48.736;9.218;2023-04-09T06:12:48;-23388.47;;;6.96;100.00
29385;BME280;16367;48.736;9.218;2023-04-09T06:14:51;-23382.59;;;6.77;100.00
29385;BME280;16367;48.736;9.218;2023-04-09T06:16:53;-23392.13;;;7.07;100.00
29385;BME280;16367;48.736;9.218;2023-04-09T06:18:56;-23389.91;;;7.00;100.00
29385;BME280;16367;48.736;9.218;2023-04-09T06:21:02;-23397.53;;;7.24;100.00
29385;BME280;16367;48.736;9.218;2023-04-09T06:23:05;-23402.44;;;7.40;100.00
29385;BME280;16367;48.736;9.218;2023-04-09T06:25:09;-23398.00;;;7.26;100.00
29385;BME280;16367;48.736;9.218;2023-04-09T06:27:12;-23404.69;;;7.47;100.00
29385;BME280;16367;48.736;9.218;2023-04-09T06:29:15;-23407.22;;;7.55;99.97
29385;BME280;16367;48.736;9.218;2023-04-09T06:31:18;-23407.84;;;7.57;99.37
29385;BME280;16367;48.736;9.218;2023-04-09T06:33:21;-23404.03;;;7.45;100.00
29385;BME280;16367;48.736;9.218;2023-04-09T06:35:24;-23400.53;;;7.34;100.00
29385;BME280;16367;48.736;9.218;2023-04-09T06:37:26;-23405.78;;;7.50;100.00
29385;BME280;16367;48.736;9.218;2023-04-09T06:39:29;-23402.13;;;7.39;100.00
29385;BME280;16367;48.736;9.218;2023-04-09T06:41:34;-23413.88;;;7.76;99.67
29385;BME280;16367;48.736;9.218;2023-04-09T06:43:37;-23419.59;;;7.94;98.14
29385;BME280;16367;48.736;9.218;2023-04-09T06:45:40;-23441.84;;;8.65;96.14
29385;BME280;16367;48.736;9.218;2023-04-09T06:47:43;-23486.25;;;10.06;87.22
29385;BME280;16367;48.736;9.218;2023-04-09T06:49:45;-23458.66;;;9.18;87.19
29385;BME280;16367;48.736;9.218;2023-04-09T06:51:48;-23484.97;;;10.02;82.10
29385;BME280;16367;48.736;9.218;2023-04-09T06:53:52;-23458.34;;;9.17;85.55
29385;BME280;16367;48.736;9.218;2023-04-09T06:55:55;-23453.56;;;9.02;83.99
29385;BME280;16367;48.736;9.218;2023-04-09T06:57:59;-23475.63;;;9.72;81.33
29385;BME280;16367;48.736;9.218;2023-04-09T07:00:03;-23460.56;;;9.24;82.24
29385;BME280;16367;48.736;9.218;2023-04-09T07:02:06;-23467.69;;;9.47;81.27
29385;BME280;16367;48.736;9.218;2023-04-09T07:04:09;-23458.03;;;9.16;85.80
29385;BME280;16367;48.736;9.218;2023-04-09T07:06:12;-23488.78;;;10.14;80.28
29385;BME280;16367;48.736;9.218;2023-04-09T07:08:15;-23481.31;;;9.90;78.36
29385;BME280;16367;48.736;9.218;2023-04-09T07:10:18;-23494.00;;;10.30;76.79
29385;BME280;16367;48.736;9.218;2023-04-09T07:12:26;-23505.09;;;10.66;75.63
29385;BME280;16367;48.736;9.218;2023-04-09T07:14:31;-23512.84;;;10.90;73.14
29385;BME280;16367;48.736;9.218;2023-04-09T07:16:33;-23521.41;;;11.17;72.68
29385;BME280;16367;48.736;9.218;2023-04-09T07:18:36;-23552.59;;;12.17;70.03
29385;BME280;16367;48.736;9.218;2023-04-09T07:20:39;-23549.75;;;12.08;69.93
29385;BME280;16367;48.736;9.218;2023-04-09T07:22:41;-23541.53;;;11.81;68.61
29385;BME280;16367;48.736;9.218;2023-04-09T07:24:44;-23566.66;;;12.61;64.37
29385;BME280;16367;48.736;9.218;2023-04-09T07:26:47;-23545.47;;;11.94;61.15
29385;BME280;16367;48.736;9.218;2023-04-09T07:28:53;-23509.53;;;10.80;65.41
29385;BME280;16367;48.736;9.218;2023-04-09T07:30:59;-23518.25;;;11.07;63.73
29385;BME280;16367;48.736;9.218;2023-04-09T07:33:03;-23550.84;;;12.11;61.85
29385;BME280;16367;48.736;9.218;2023-04-09T07:35:07;-23561.28;;;12.44;61.32
29385;BME280;16367;48.736;9.218;2023-04-09T07:37:11;-23523.78;;;11.25;62.39
29385;BME280;16367;48.736;9.218;2023-04-09T07:39:14;-23521.88;;;11.19;64.06
29385;BME280;16367;48.736;9.218;2023-04-09T07:41:17;-23599.38;;;13.66;57.04
29385;BME280;16367;48.736;9.218;2023-04-09T07:43:21;-23597.66;;;13.60;56.12
29385;BME280;16367;48.736;9.218;2023-04-09T07:45:24;-23600.97;;;13.71;55.89
29385;BME280;16367;48.736;9.218;2023-04-09T07:47:28;-23579.47;;;13.02;57.37
29385;BME280;16367;48.736;9.218;2023-04-09T07:49:31;-23576.78;;;12.94;59.69
29385;BME280;16367;48.736;9.218;2023-04-09T07:51:34;-23597.66;;;13.60;57.30
29385;BME280;16367;48.736;9.218;2023-04-09T07:53:37;-23591.34;;;13.40;56.96
29385;BME280;16367;48.736;9.218;2023-04-09T07:55:40;-23605.06;;;13.84;56.07
29385;BME280;16367;48.736;9.218;2023-04-09T07:57:42;-23608.22;;;13.94;55.21
29385;BME280;16367;48.736;9.218;2023-04-09T07:59:45;-23586.91;;;13.26;57.58
29385;BME280;16367;48.736;9.218;2023-04-09T08:01:48;-23590.38;;;13.37;57.58
29385;BME280;16367;48.736;9.218;2023-04-09T08:03:52;-23578.38;;;12.99;57.99
29385;BME280;16367;48.736;9.218;2023-04-09T08:05:55;-23609.03;;;13.96;56.33
29385;BME280;16367;48.736;9.218;2023-04-09T08:07:58;-23613.44;;;14.10;56.69
29385;BME280;16367;48.736;9.218;2023-04-09T08:10:01;-23613.13;;;14.09;56.61
29385;BME280;16367;48.736;9.218;2023-04-09T08:12:04;-23630.97;;;14.66;54.25
29385;BME280;16367;48.736;9.218;2023-04-09T08:14:06;-23634.59;;;14.78;53.05
29385;BME280;16367;48.736;9.218;2023-04-09T08:16:13;-23648.47;;;15.22;51.37
29385;BME280;16367;48.736;9.218;2023-04-09T08:18:15;-23642.16;;;15.02;52.47
29385;BME280;16367;48.736;9.218;2023-04-09T08:20:20;-23588.31;;;13.30;54.09
29385;BME280;16367;48.736;9.218;2023-04-09T08:22:22;-23632.69;;;14.72;52.28
29385;BME280;16367;48.736;9.218;2023-04-09T08:24:25;-23639.50;;;14.93;49.39
29385;BME280;16367;48.736;9.218;2023-04-09T08:26:28;-23644.22;;;15.09;50.12
29385;BME280;16367;48.736;9.218;2023-04-09T08:28:31;-23634.44;;;14.77;50.38
29385;BME280;16367;48.736;9.218;2023-04-09T08:30:34;-23611.72;;;14.05;52.51
29385;BME280;16367;48.736;9.218;2023-04-09T08:32:36;-23615.03;;;14.15;51.83
29385;BME280;16367;48.736;9.218;2023-04-09T08:34:39;-23615.66;;;14.17;51.01
29385;BME280;16367;48.736;9.218;2023-04-09T08:36:45;-23635.22;;;14.80;49.89
29385;BME280;16367;48.736;9.218;2023-04-09T08:38:50;-23605.38;;;13.85;52.56
29385;BME280;16367;48.736;9.218;2023-04-09T08:40:53;-23587.69;;;13.28;55.27
29385;BME280;16367;48.736;9.218;2023-04-09T08:42:56;-23637.28;;;14.86;51.83
29385;BME280;16367;48.736;9.218;2023-04-09T08:45:02;-23603.97;;;13.80;54.54
29385;BME280;16367;48.736;9.218;2023-04-09T08:47:07;-23602.22;;;13.75;54.21
29385;BME280;16367;48.736;9.218;2023-04-09T08:49:10;-23613.59;;;14.11;52.99
29385;BME280;16367;48.736;9.218;2023-04-09T08:51:14;-23625.44;;;14.49;52.26
29385;BME280;16367;48.736;9.218;2023-04-09T08:53:18;-23624.50;;;14.46;52.94
29385;BME280;16367;48.736;9.218;2023-04-09T08:55:22;-23647.06;;;15.18;50.25
29385;BME280;16367;48.736;9.218;2023-04-09T08:57:25;-23627.50;;;14.55;50.25
29385;BME280;16367;48.736;9.218;2023-04-09T08:59:29;-23657.00;;;15.49;49.53
29385;BME280;16367;48.736;9.218;2023-04-09T09:01:31;-23639.34;;;14.93;49.75
29385;BME280;16367;48.736;9.218;2023-04-09T09:03:51;-23682.53;;;16.31;47.30
29385;BME280;16367;48.736;9.218;2023-04-09T09:05:55;-23648.78;;;15.23;47.83
29385;BME280;16367;48.736;9.218;2023-04-09T09:07:59;-23646.28;;;15.15;50.42
29385;BME280;16367;48.736;9.218;2023-04-09T09:10:04;-23652.09;;;15.34;49.13
29385;BME280;16367;48.736;9.218;2023-04-09T09:12:07;-23673.22;;;16.01;48.09
29385;BME280;16367;48.736;9.218;2023-04-09T09:14:11;-23680.00;;;16.23;46.90
29385;BME280;16367;48.736;9.218;2023-04-09T09:16:14;-23598.59;;;13.63;52.17
29385;BME280;16367;48.736;9.218;2023-04-09T09:18:18;-23652.25;;;15.34;48.56
29385;BME280;16367;48.736;9.218;2023-04-09T09:20:22;-23648.31;;;15.22;49.16
29385;BME280;16367;48.736;9.218;2023-04-09T09:22:24;-23651.47;;;15.32;47.35
29385;BME280;16367;48.736;9.218;2023-04-09T09:24:28;-23670.56;;;15.93;46.82
29385;BME280;16367;48.736;9.218;2023-04-09T09:26:37;-23642.16;;;15.02;46.43
29385;BME280;16367;48.736;9.218;2023-04-09T09:28:40;-23630.97;;;14.66;49.11
29385;BME280;16367;48.736;9.218;2023-04-09T09:30:45;-23676.22;;;16.11;45.69
29385;BME280;16367;48.736;9.218;2023-04-09T09:32:53;-23652.25;;;15.34;47.73
29385;BME280;16367;48.736;9.218;2023-04-09T09:35:03;-23629.06;;;14.60;48.49
29385;BME280;16367;48.736;9.218;2023-04-09T09:37:25;-23687.88;;;16.48;45.94
29385;BME280;16367;48.736;9.218;2023-04-09T09:39:41;-23621.34;;;14.36;49.22
29385;BME280;16367;48.736;9.218;2023-04-09T09:41:46;-23671.81;;;15.97;45.26
29385;BME280;16367;48.736;9.218;2023-04-09T09:43:49;-23571.72;;;12.78;50.73
29385;BME280;16367;48.736;9.218;2023-04-09T09:45:52;-23625.75;;;14.50;46.97
29385;BME280;16367;48.736;9.218;2023-04-09T09:47:55;-23627.66;;;14.56;46.35
29385;BME280;16367;48.736;9.218;2023-04-09T09:49:58;-23671.50;;;15.96;46.20
29385;BME280;16367;48.736;9.218;2023-04-09T09:52:01;-23645.00;;;15.11;46.09
29385;BME280;16367;48.736;9.218;2023-04-09T09:54:07;-23655.28;;;15.44;45.62
29385;BME280;16367;48.736;9.218;2023-04-09T09:56:15;-23687.25;;;16.46;45.20
29385;BME280;16367;48.736;9.218;2023-04-09T09:58:23;-23706.63;;;17.08;45.25
29385;BME280;16367;48.736;9.218;2023-04-09T10:00:30;-23632.06;;;14.70;46.55
29385;BME280;16367;48.736;9.218;2023-04-09T10:02:42;-23664.56;;;15.74;45.84
29385;BME280;16367;48.736;9.218;2023-04-09T10:04:47;-23680.47;;;16.24;43.91
29385;BME280;16367;48.736;9.218;2023-04-09T10:06:51;-23684.25;;;16.36;44.50
29385;BME280;16367;48.736;9.218;2023-04-09T10:08:56;-23705.53;;;17.04;44.01
29385;BME280;16367;48.736;9.218;2023-04-09T10:10:59;-23688.69;;;16.51;44.02
29385;BME280;16367;48.736;9.218;2023-04-09T10:13:05;-23669.47;;;15.89;44.83
29385;BME280;16367;48.736;9.218;2023-04-09T10:15:10;-23621.66;;;14.37;48.16
29385;BME280;16367;48.736;9.218;2023-04-09T10:17:13;-23677.66;;;16.15;47.21
29385;BME280;16367;48.736;9.218;2023-04-09T10:19:16;-23643.44;;;15.06;46.90
29385;BME280;16367;48.736;9.218;2023-04-09T10:21:28;-23601.13;;;13.71;49.48
29385;BME280;16367;48.736;9.218;2023-04-09T10:23:37;-23584.38;;;13.18;52.70
29385;BME280;16367;48.736;9.218;2023-04-09T10:25:40;-23544.53;;;11.91;53.41
29385;BME280;16367;48.736;9.218;2023-04-09T10:27:43;-23549.28;;;12.06;54.56
29385;BME280;16367;48.736;9.218;2023-04-09T10:29:49;-23593.22;;;13.46;51.63
29385;BME280;16367;48.736;9.218;2023-04-09T10:32:02;-23616.59;;;14.20;48.95
29385;BME280;16367;48.736;9.218;2023-04-09T10:34:06;-23591.00;;;13.39;48.83
29385;BME280;16367;48.736;9.218;2023-04-09T10:36:11;-23579.31;;;13.02;50.30
29385;BME280;16367;48.736;9.218;2023-04-09T10:38:14;-23575.84;;;12.91;50.99
29385;BME280;16367;48.736;9.218;2023-04-09T10:40:18;-23603.19;;;13.78;48.04
29385;BME280;16367;48.736;9.218;2023-04-09T10:42:24;-23594.03;;;13.49;48.93
29385;BME280;16367;48.736;9.218;2023-04-09T10:44:30;-23587.53;;;13.28;48.63
29385;BME280;16367;48.736;9.218;2023-04-09T10:46:35;-23580.59;;;13.06;47.91
29385;BME280;16367;48.736;9.218;2023-04-09T10:48:39;-23553.22;;;12.19;50.63